Time;durP1;ratioP1;P1;durP2;ratioP2;P2;SDS_P1;SDS_P2;PMS_P1;PMS_P2;Temp;Humidity;BMP_temperature;BMP_pressure;BME280_temperature;BME280_humidity;BME280_pressure;Samples;Min_cycle;Max_cycle;Signal;HPM_P1;HPM_P2
2023/02/02 00:02:02;;;;;;;3.13;3.03;;;0.30;99.90;;;;;;6126476;23;20798;-81
2023/02/02 00:04:31;;;;;;;3.40;3.20;;;0.40;99.90;;;;;;6153721;23;20756;-80
2023/02/02 00:06:58;;;;;;;3.53;3.35;;;0.10;99.90;;;;;;6126863;23;20821;-81
2023/02/02 00:09:27;;;;;;;3.15;2.95;;;0.20;99.90;;;;;;6128094;23;20423;-81
2023/02/02 00:11:55;;;;;;;3.08;2.97;;;0.00;99.90;;;;;;6127258;23;20424;-81
2023/02/02 00:14:23;;;;;;;3.08;2.97;;;-0.10;99.90;;;;;;6127918;23;20374;-80
2023/02/02 00:16:52;;;;;;;3.45;3.25;;;0.00;99.90;;;;;;6127024;23;20842;-81
2023/02/02 00:19:29;;;;;;;3.40;3.20;;;0.10;99.90;;;;;;6127530;23;20381;-81
2023/02/02 00:21:56;;;;;;;3.50;3.30;;;0.10;99.90;;;;;;6126947;23;20382;-81
2023/02/02 00:24:23;;;;;;;3.05;2.95;;;0.20;99.90;;;;;;6152933;23;20699;-80
2023/02/02 00:26:56;;;;;;;3.30;3.10;;;0.30;99.90;;;;;;6126923;23;20386;-80
2023/02/02 00:29:27;;;;;;;3.30;3.10;;;0.20;99.90;;;;;;6127875;23;20441;-80
2023/02/02 00:31:55;;;;;;;3.13;2.92;;;0.10;99.90;;;;;;6126635;23;20381;-79
2023/02/02 00:34:22;;;;;;;3.33;3.13;;;-0.10;99.90;;;;;;6153126;23;20389;-80
2023/02/02 00:36:50;;;;;;;2.85;2.75;;;-0.10;99.90;;;;;;6126696;23;20387;-80
2023/02/02 00:39:20;;;;;;;2.65;2.55;;;-0.10;99.90;;;;;;6103564;23;20409;-81
2023/02/02 00:41:47;;;;;;;2.75;2.65;;;-0.10;99.90;;;;;;6123210;23;20387;-78
2023/02/02 00:46:59;;;;;;;2.72;2.63;;;-0.10;99.90;;;;;;6151702;23;20382;-80
2023/02/02 00:49:26;;;;;;;3.10;2.90;;;-0.10;99.90;;;;;;6126967;23;20378;-80
2023/02/02 00:51:53;;;;;;;3.30;3.10;;;0.00;99.90;;;;;;6151729;23;20448;-80
2023/02/02 00:54:20;;;;;;;3.20;3.00;;;-0.10;99.90;;;;;;6153342;23;20837;-80
2023/02/02 00:56:47;;;;;;;3.70;3.50;;;-0.20;99.90;;;;;;6126893;23;20469;-80
2023/02/02 00:59:14;;;;;;;2.97;2.88;;;-0.20;99.90;;;;;;6152597;23;20436;-80
2023/02/02 01:01:41;;;;;;;3.30;3.20;;;-0.20;99.90;;;;;;6126783;23;20385;-82
2023/02/02 01:04:07;;;;;;;2.92;2.83;;;-0.10;99.90;;;;;;6150448;23;20447;-82
2023/02/02 01:06:34;;;;;;;3.15;3.05;;;-0.10;99.90;;;;;;6127237;23;20409;-80
2023/02/02 01:09:02;;;;;;;3.10;2.90;;;-0.20;99.90;;;;;;6126177;23;20407;-80
2023/02/02 01:11:32;;;;;;;2.80;2.70;;;-0.20;99.90;;;;;;6127014;23;20381;-80
2023/02/02 01:13:59;;;;;;;3.42;3.22;;;-0.20;99.90;;;;;;6126257;23;20398;-77
2023/02/02 01:16:26;;;;;;;3.08;2.97;;;-0.30;99.90;;;;;;6127229;23;20699;-80
2023/02/02 01:18:53;;;;;;;3.05;2.90;;;-0.20;99.90;;;;;;6125916;23;20684;-80
2023/02/02 01:21:20;;;;;;;2.80;2.70;;;-0.20;99.90;;;;;;6127897;23;20370;-81
2023/02/02 01:23:48;;;;;;;2.70;2.60;;;-0.20;99.90;;;;;;6126723;23;20378;-80
2023/02/02 01:26:15;;;;;;;2.90;2.80;;;-0.40;99.90;;;;;;6126090;23;20738;-80
2023/02/02 01:28:43;;;;;;;2.80;2.70;;;-0.40;99.90;;;;;;6125925;23;20385;-80
2023/02/02 01:31:15;;;;;;;2.63;2.53;;;-0.40;99.90;;;;;;6126192;23;20861;-80
2023/02/02 01:33:43;;;;;;;3.22;3.05;;;-0.40;99.90;;;;;;6126811;23;20378;-81
2023/02/02 01:36:13;;;;;;;3.08;2.90;;;-0.40;99.90;;;;;;6151672;23;20386;-80
2023/02/02 01:38:41;;;;;;;2.92;2.83;;;-0.30;99.90;;;;;;6127075;23;20371;-82
2023/02/02 01:41:11;;;;;;;2.97;2.88;;;-0.40;99.90;;;;;;6125882;23;20378;-79
2023/02/02 01:43:44;;;;;;;3.00;2.80;;;-0.40;99.90;;;;;;6122749;23;20372;-80
2023/02/02 01:46:16;;;;;;;3.00;2.90;;;-0.40;99.90;;;;;;6150898;23;20393;-80
2023/02/02 01:48:59;;;;;;;2.88;2.78;;;-0.40;99.90;;;;;;6126492;23;20746;-80
2023/02/02 01:51:32;;;;;;;3.03;2.92;;;-0.40;99.90;;;;;;6151786;23;20370;-80
2023/02/02 01:54:00;;;;;;;3.00;2.90;;;-0.30;99.90;;;;;;6126271;23;20366;-81
2023/02/02 01:56:35;;;;;;;3.13;2.92;;;-0.30;99.90;;;;;;6151666;23;20858;-80
2023/02/02 01:59:03;;;;;;;3.10;3.00;;;-0.40;99.90;;;;;;6126713;23;20706;-80
2023/02/02 02:01:30;;;;;;;2.90;2.80;;;-0.60;99.90;;;;;;6126061;23;20374;-81
2023/02/02 03:06:04;;;;;;;3.28;3.08;;;-0.40;99.90;;;;;;6118980;23;20393;-74
2023/02/02 03:08:45;;;;;;;2.70;2.60;;;-0.40;99.90;;;;;;6124445;23;20444;-74
2023/02/02 03:11:14;;;;;;;2.95;2.85;;;-0.50;99.90;;;;;;6150242;23;20377;-74
2023/02/02 03:13:42;;;;;;;2.60;2.50;;;-0.60;99.90;;;;;;6127436;23;20370;-73
2023/02/02 03:16:10;;;;;;;2.60;2.50;;;-0.70;99.90;;;;;;6125790;23;20374;-74
2023/02/02 03:18:37;;;;;;;2.90;2.80;;;-0.80;99.90;;;;;;6127295;23;20378;-74
2023/02/02 03:21:04;;;;;;;2.50;2.37;;;-0.70;99.90;;;;;;6126661;23;20416;-74
2023/02/02 03:23:31;;;;;;;2.45;2.35;;;-0.70;99.90;;;;;;6126051;23;20375;-74
2023/02/02 03:25:58;;;;;;;2.80;2.70;;;-0.80;99.90;;;;;;6126611;23;20417;-73
2023/02/02 03:28:26;;;;;;;2.60;2.50;;;-0.80;99.90;;;;;;6152001;23;20842;-74
2023/02/02 03:30:54;;;;;;;2.42;2.33;;;-0.80;99.90;;;;;;6152417;23;20445;-74
2023/02/02 03:33:22;;;;;;;2.85;2.75;;;-0.70;99.90;;;;;;6126323;23;20374;-74
2023/02/02 03:35:50;;;;;;;2.35;2.25;;;-0.70;99.90;;;;;;6155185;23;20381;-76
2023/02/02 03:38:17;;;;;;;2.60;2.50;;;-0.80;99.90;;;;;;6149030;23;20401;-76
2023/02/02 03:40:44;;;;;;;2.70;2.60;;;-0.90;99.90;;;;;;6149722;23;20366;-76
2023/02/02 03:43:11;;;;;;;2.55;2.45;;;-0.90;99.90;;;;;;6150406;23;20405;-76
2023/02/02 03:45:39;;;;;;;2.70;2.60;;;-1.10;99.90;;;;;;6148682;23;20370;-76
2023/02/02 03:48:06;;;;;;;2.75;2.63;;;-1.10;99.90;;;;;;6149200;23;20382;-76
2023/02/02 03:50:33;;;;;;;2.40;2.30;;;-1.00;99.90;;;;;;6140021;23;20378;-74
2023/02/02 03:53:00;;;;;;;2.33;2.22;;;-0.90;99.90;;;;;;6152698;23;20754;-74
2023/02/02 03:55:27;;;;;;;2.70;2.60;;;-0.80;99.90;;;;;;6125622;23;20400;-74
2023/02/02 03:57:54;;;;;;;2.45;2.35;;;-0.80;99.90;;;;;;6127145;23;20420;-73
2023/02/02 04:00:21;;;;;;;2.50;2.40;;;-0.90;99.90;;;;;;6151067;23;20725;-73
2023/02/02 04:02:48;;;;;;;2.30;2.20;;;-0.90;99.90;;;;;;6121282;23;20870;-74
2023/02/02 04:05:15;;;;;;;2.50;2.40;;;-0.90;99.90;;;;;;6121993;23;20376;-74
2023/02/02 04:07:42;;;;;;;2.37;2.27;;;-0.80;99.90;;;;;;6119360;23;20383;-73
2023/02/02 04:10:10;;;;;;;2.45;2.35;;;-0.80;99.90;;;;;;6121525;23;20416;-73
2023/02/02 04:12:37;;;;;;;2.60;2.50;;;-0.80;99.90;;;;;;6121415;23;20375;-73
2023/02/02 04:15:04;;;;;;;2.30;2.20;;;-0.80;99.90;;;;;;6121754;23;20471;-73
2023/02/02 04:17:31;;;;;;;2.10;2.00;;;-0.80;99.90;;;;;;6122057;23;20708;-74
2023/02/02 04:19:58;;;;;;;2.40;2.30;;;-0.80;99.90;;;;;;6123155;23;20383;-73
2023/02/02 04:22:25;;;;;;;2.38;2.20;;;-0.80;99.90;;;;;;6121710;23;20951;-74
2023/02/02 04:24:52;;;;;;;2.10;2.00;;;-0.80;99.90;;;;;;6096628;23;20459;-74
2023/02/02 04:27:19;;;;;;;2.50;2.40;;;-0.90;99.90;;;;;;6121673;23;21011;-74
2023/02/02 04:29:46;;;;;;;2.40;2.30;;;-1.00;99.90;;;;;;6121855;23;20443;-74
2023/02/02 04:32:17;;;;;;;2.60;2.50;;;-1.30;99.90;;;;;;6122798;23;20866;-73
2023/02/02 04:34:44;;;;;;;2.60;2.50;;;-1.30;99.90;;;;;;6122043;23;21299;-74
2023/02/02 04:37:11;;;;;;;2.58;2.47;;;-1.30;99.90;;;;;;6091876;23;20468;-73
2023/02/02 04:39:38;;;;;;;2.65;2.55;;;-1.20;99.90;;;;;;6116976;23;20380;-74
2023/02/02 04:42:05;;;;;;;2.80;2.70;;;-1.20;99.90;;;;;;6122738;23;20454;-73
2023/02/02 04:44:32;;;;;;;2.92;2.83;;;-1.20;99.90;;;;;;6095962;23;20451;-74
2023/02/02 04:46:59;;;;;;;2.58;2.45;;;-1.30;99.90;;;;;;6122063;23;20714;-74
2023/02/02 04:49:26;;;;;;;2.60;2.50;;;-1.30;99.90;;;;;;6091198;23;20381;-73
2023/02/02 04:51:53;;;;;;;2.40;2.30;;;-1.40;99.90;;;;;;6094619;23;20405;-74
2023/02/02 04:54:20;;;;;;;2.43;2.33;;;-1.30;99.90;;;;;;6122878;23;20407;-73
2023/02/02 04:56:47;;;;;;;2.47;2.38;;;-1.40;99.90;;;;;;6122039;23;20372;-73
2023/02/02 04:59:13;;;;;;;2.65;2.55;;;-1.50;99.90;;;;;;6121232;23;20378;-73
2023/02/02 05:01:40;;;;;;;3.22;3.03;;;-1.50;99.90;;;;;;6121197;23;20443;-74
2023/02/02 05:04:09;;;;;;;2.58;2.47;;;-1.40;99.90;;;;;;6120630;23;20712;-73
2023/02/02 05:06:36;;;;;;;2.67;2.58;;;-1.30;99.90;;;;;;6090161;23;20401;-74
2023/02/02 05:09:03;;;;;;;2.75;2.65;;;-1.40;99.90;;;;;;6110791;23;20382;-73
2023/02/02 05:11:30;;;;;;;2.50;2.40;;;-1.30;99.90;;;;;;6119412;23;20371;-74
2023/02/02 05:13:57;;;;;;;2.78;2.67;;;-1.50;99.90;;;;;;6097086;23;20400;-73
2023/02/02 05:16:24;;;;;;;2.40;2.30;;;-1.60;99.90;;;;;;6121598;23;20394;-75
2023/02/02 05:18:55;;;;;;;2.63;2.53;;;-1.60;99.90;;;;;;6122344;23;20443;-73
2023/02/02 05:21:23;;;;;;;2.50;2.40;;;-1.60;99.90;;;;;;6096379;23;20371;-73
2023/02/02 05:23:50;;;;;;;2.20;2.10;;;-1.50;99.90;;;;;;6096189;23;20376;-73
2023/02/02 05:26:20;;;;;;;2.30;2.20;;;-1.50;99.90;;;;;;6121699;23;20442;-74
2023/02/02 05:28:47;;;;;;;2.28;2.17;;;-1.50;99.90;;;;;;6095796;23;20445;-74
2023/02/02 05:31:14;;;;;;;2.20;2.10;;;-1.50;99.90;;;;;;6096224;23;20402;-73
2023/02/02 05:33:41;;;;;;;2.28;2.17;;;-1.50;99.90;;;;;;6121018;23;20712;-73
2023/02/02 05:36:09;;;;;;;2.53;2.42;;;-1.50;99.90;;;;;;6122273;23;20756;-74
2023/02/02 05:38:35;;;;;;;2.47;2.38;;;-1.60;99.90;;;;;;6120875;23;20372;-74
2023/02/02 05:41:03;;;;;;;2.75;2.65;;;-1.60;99.90;;;;;;6122275;23;20376;-74
2023/02/02 05:43:31;;;;;;;2.60;2.40;;;-1.70;99.90;;;;;;6095157;23;20383;-73
2023/02/02 05:45:59;;;;;;;3.10;2.90;;;-1.80;99.90;;;;;;6096463;23;20387;-73
2023/02/02 05:48:26;;;;;;;3.20;3.00;;;-1.90;99.90;;;;;;6096032;23;20394;-75
2023/02/02 05:50:59;;;;;;;2.60;2.50;;;-1.80;99.90;;;;;;6121693;23;20435;-74
2023/02/02 05:53:30;;;;;;;3.50;3.30;;;-1.80;99.90;;;;;;6122100;23;20430;-73
2023/02/02 05:55:58;;;;;;;3.28;3.08;;;-1.70;99.90;;;;;;6120155;23;20392;-73
2023/02/02 05:58:25;;;;;;;2.75;2.65;;;-1.70;99.90;;;;;;6121699;23;20389;-73
2023/02/02 06:00:52;;;;;;;2.88;2.78;;;-1.70;99.90;;;;;;6119421;23;20383;-73
2023/02/02 06:03:22;;;;;;;3.10;3.00;;;-1.70;99.90;;;;;;6121524;23;20431;-73
2023/02/02 06:05:49;;;;;;;3.10;3.00;;;-1.70;99.90;;;;;;6120868;23;20383;-73
2023/02/02 06:08:16;;;;;;;2.50;2.40;;;-1.70;99.90;;;;;;6095828;23;20518;-74
2023/02/02 06:10:43;;;;;;;2.33;2.22;;;-1.80;99.90;;;;;;6119119;23;20438;-74
2023/02/02 06:13:10;;;;;;;2.60;2.50;;;-1.90;99.90;;;;;;6120491;23;20403;-73
2023/02/02 06:15:37;;;;;;;2.42;2.33;;;-2.00;99.90;;;;;;6119248;23;20745;-74
2023/02/02 06:18:07;;;;;;;2.72;2.63;;;-2.00;99.90;;;;;;6090872;23;20377;-74
2023/02/02 06:20:34;;;;;;;3.05;2.95;;;-2.10;99.90;;;;;;6091170;23;20383;-74
2023/02/02 06:23:01;;;;;;;3.47;3.28;;;-2.20;99.90;;;;;;6121456;23;20406;-74
2023/02/02 06:25:28;;;;;;;2.60;2.50;;;-2.20;99.90;;;;;;6121424;23;20368;-73
2023/02/02 06:27:56;;;;;;;2.58;2.47;;;-2.20;99.90;;;;;;6120763;23;20455;-73
2023/02/02 06:30:24;;;;;;;2.55;2.45;;;-2.10;99.90;;;;;;6119662;23;20379;-73
2023/02/02 06:32:51;;;;;;;2.42;2.33;;;-2.10;99.90;;;;;;6094825;23;20458;-74
2023/02/02 06:35:18;;;;;;;2.67;2.58;;;-2.10;99.90;;;;;;6120270;23;20379;-73
2023/02/02 06:37:45;;;;;;;3.13;3.03;;;-2.20;99.90;;;;;;6120478;23;20844;-73
2023/02/02 06:40:12;;;;;;;2.80;2.70;;;-2.20;99.90;;;;;;6121038;23;20822;-74
2023/02/02 06:42:39;;;;;;;2.70;2.60;;;-2.20;99.90;;;;;;6121424;23;20399;-73
2023/02/02 06:45:07;;;;;;;2.60;2.50;;;-2.20;99.90;;;;;;6091070;23;20413;-74
2023/02/02 06:47:34;;;;;;;3.10;3.00;;;-2.20;99.90;;;;;;6115622;23;20383;-73
2023/02/02 06:50:01;;;;;;;4.33;4.03;;;-2.00;99.90;;;;;;6120658;23;20383;-74
2023/02/02 06:52:28;;;;;;;3.85;3.67;;;-2.00;99.90;;;;;;6095067;23;20856;-74
2023/02/02 06:54:55;;;;;;;4.03;3.83;;;-1.90;99.90;;;;;;6120224;23;20371;-73
2023/02/02 06:57:22;;;;;;;3.08;2.97;;;-1.90;99.90;;;;;;6120675;23;20456;-74
2023/02/02 06:59:50;;;;;;;2.70;2.50;;;-1.90;99.90;;;;;;6118154;23;20426;-74
2023/02/02 07:02:16;;;;;;;2.47;2.38;;;-1.90;99.90;;;;;;6118794;23;20376;-74
2023/02/02 07:04:46;;;;;;;2.40;2.30;;;-2.00;99.90;;;;;;6119113;23;20415;-74
2023/02/02 07:07:13;;;;;;;2.88;2.78;;;-2.00;99.90;;;;;;6120849;23;20777;-73
2023/02/02 07:09:40;;;;;;;2.42;2.33;;;-2.00;99.90;;;;;;6120303;23;20479;-74
2023/02/02 07:12:07;;;;;;;2.85;2.75;;;-2.00;99.90;;;;;;6119189;23;20372;-73
2023/02/02 07:14:34;;;;;;;2.80;2.70;;;-2.10;99.90;;;;;;6090618;23;20468;-74
2023/02/02 07:17:01;;;;;;;2.60;2.50;;;-2.00;99.90;;;;;;6120643;23;20495;-74
2023/02/02 07:19:28;;;;;;;2.80;2.70;;;-2.00;99.90;;;;;;6121046;23;20792;-73
2023/02/02 07:21:54;;;;;;;2.80;2.70;;;-1.90;99.90;;;;;;6093354;23;20380;-75
2023/02/02 07:24:21;;;;;;;2.83;2.72;;;-1.90;99.90;;;;;;6121036;23;20387;-74
2023/02/02 07:26:48;;;;;;;3.28;3.08;;;-1.80;99.90;;;;;;6119557;23;20459;-74
2023/02/02 07:29:15;;;;;;;3.43;3.23;;;-1.80;99.90;;;;;;6089684;23;20444;-74
2023/02/02 07:31:42;;;;;;;3.28;3.17;;;-1.80;99.90;;;;;;6115781;23;20396;-74
2023/02/02 07:34:09;;;;;;;3.47;3.28;;;-1.80;99.90;;;;;;6089928;23;20378;-75
2023/02/02 07:36:37;;;;;;;3.15;3.05;;;-1.80;99.90;;;;;;6090101;23;20436;-74
2023/02/02 07:39:04;;;;;;;3.80;3.60;;;-1.80;99.90;;;;;;6120020;23;20372;-74
2023/02/02 07:41:33;;;;;;;3.90;3.70;;;-1.70;99.90;;;;;;6095204;23;20379;-74
2023/02/02 07:44:00;;;;;;;2.85;2.75;;;-1.60;99.90;;;;;;6120254;23;20395;-75
2023/02/02 07:46:27;;;;;;;2.80;2.70;;;-1.60;99.90;;;;;;6118755;23;20712;-74
2023/02/02 07:48:55;;;;;;;2.95;2.78;;;-1.50;99.90;;;;;;6118651;23;20392;-74
2023/02/02 07:51:23;;;;;;;3.60;3.40;;;-1.30;99.90;;;;;;6095996;23;20372;-74
2023/02/02 07:53:52;;;;;;;3.78;3.58;;;-1.00;99.90;;;;;;6120425;23;20694;-74
2023/02/02 07:56:22;;;;;;;3.97;3.77;;;-0.70;99.90;;;;;;6118919;23;20372;-74
2023/02/02 07:58:54;;;;;;;4.13;3.92;;;-0.40;99.90;;;;;;6120819;23;20439;-74
2023/02/02 08:01:24;;;;;;;3.70;3.50;;;-0.10;99.90;;;;;;6121192;23;20462;-75
2023/02/02 08:03:53;;;;;;;3.15;3.05;;;0.30;99.90;;;;;;6095608;23;20715;-74
2023/02/02 08:06:22;;;;;;;2.92;2.83;;;0.60;99.90;;;;;;6096085;23;20375;-74
2023/02/02 08:08:50;;;;;;;3.15;2.95;;;0.90;99.90;;;;;;6120937;23;20384;-74
2023/02/02 08:11:20;;;;;;;2.70;2.60;;;1.20;99.90;;;;;;6097094;23;20383;-74
2023/02/02 08:13:49;;;;;;;2.67;2.58;;;1.50;99.90;;;;;;6096233;23;20768;-74
2023/02/02 08:16:17;;;;;;;2.72;2.63;;;1.80;99.90;;;;;;6121248;23;20387;-74
2023/02/02 08:18:44;;;;;;;2.88;2.70;;;2.10;99.90;;;;;;6120467;23;20420;-74
2023/02/02 08:21:11;;;;;;;3.33;3.13;;;2.40;99.50;;;;;;6094283;23;20379;-74
2023/02/02 08:23:39;;;;;;;2.75;2.65;;;2.60;99.00;;;;;;6121932;23;20418;-75
2023/02/02 08:26:12;;;;;;;2.55;2.45;;;3.00;97.00;;;;;;6096208;23;20380;-74
2023/02/02 08:28:41;;;;;;;2.60;2.50;;;3.10;96.10;;;;;;6089481;23;20389;-75
2023/02/02 08:31:16;;;;;;;3.00;2.90;;;3.20;94.50;;;;;;6093577;23;20425;-73
2023/02/02 08:33:43;;;;;;;3.88;3.67;;;3.40;93.50;;;;;;6118021;23;20455;-75
2023/02/02 08:36:18;;;;;;;3.57;3.37;;;3.30;92.20;;;;;;6096223;23;20378;-74
2023/02/02 08:38:45;;;;;;;3.28;3.08;;;3.60;91.90;;;;;;6092260;23;20774;-75
2023/02/02 08:41:15;;;;;;;3.38;3.17;;;3.90;91.20;;;;;;6099293;23;20376;-74
2023/02/02 08:43:42;;;;;;;3.20;3.00;;;4.20;89.80;;;;;;6122858;23;20403;-75
2023/02/02 08:46:11;;;;;;;3.20;3.03;;;4.50;88.30;;;;;;6095917;23;20378;-74
2023/02/02 08:48:38;;;;;;;2.25;2.15;;;4.60;87.90;;;;;;6091657;23;20385;-75
2023/02/02 08:51:07;;;;;;;2.15;2.05;;;4.90;87.80;;;;;;6120014;23;20434;-74
2023/02/02 08:53:34;;;;;;;2.30;2.20;;;4.90;87.40;;;;;;6122513;23;20399;-74
2023/02/02 08:56:05;;;;;;;2.77;2.67;;;4.90;90.10;;;;;;6120423;23;21047;-74
2023/02/02 08:58:33;;;;;;;2.47;2.38;;;4.70;90.10;;;;;;6096701;23;20384;-74
2023/02/02 09:01:05;;;;;;;1.90;1.80;;;5.00;87.50;;;;;;6095976;23;20712;-74
2023/02/02 09:03:33;;;;;;;2.10;2.00;;;5.30;84.60;;;;;;6122460;23;20384;-74
2023/02/02 09:06:05;;;;;;;1.90;1.80;;;5.60;82.80;;;;;;6096114;23;20399;-74
2023/02/02 09:08:32;;;;;;;2.00;1.90;;;5.40;81.10;;;;;;6120791;23;20396;-75
2023/02/02 09:11:07;;;;;;;1.90;1.80;;;5.60;81.30;;;;;;6119905;23;20716;-75
2023/02/02 09:13:35;;;;;;;1.65;1.55;;;5.90;77.60;;;;;;6091819;23;20460;-76
2023/02/02 09:16:04;;;;;;;1.77;1.67;;;6.00;75.40;;;;;;6109391;23;20414;-74
2023/02/02 09:18:31;;;;;;;1.75;1.65;;;6.10;74.60;;;;;;6096991;23;20380;-74
2023/02/02 09:21:03;;;;;;;1.90;1.80;;;6.30;74.00;;;;;;6121122;23;20412;-74
2023/02/02 09:23:32;;;;;;;1.88;1.77;;;6.40;71.60;;;;;;6122435;23;20438;-74
2023/02/02 09:26:14;;;;;;;2.47;2.38;;;6.50;73.10;;;;;;6121418;23;20426;-74
2023/02/02 09:28:44;;;;;;;4.67;4.37;;;6.70;73.60;;;;;;6121014;23;20445;-75
2023/02/02 09:31:11;;;;;;;4.60;4.30;;;7.00;73.40;;;;;;6121520;23;20458;-74
2023/02/02 09:33:39;;;;;;;3.60;3.40;;;7.20;72.60;;;;;;6120795;23;20712;-74
2023/02/02 09:36:15;;;;;;;5.03;4.72;;;7.30;70.20;;;;;;6120009;23;20422;-74
2023/02/02 09:38:42;;;;;;;3.03;2.83;;;7.60;70.50;;;;;;6121829;23;20760;-75
2023/02/02 09:41:36;;;;;;;2.65;2.55;;;7.80;67.30;;;;;;6119416;23;20407;-74
2023/02/02 09:44:06;;;;;;;2.37;2.27;;;8.20;64.60;;;;;;6119776;23;20740;-75
2023/02/02 09:47:05;;;;;;;3.53;3.28;;;8.40;64.70;;;;;;6122557;23;20386;-76
2023/02/02 09:49:35;;;;;;;2.67;2.50;;;8.50;64.20;;;;;;6121661;23;20414;-75
2023/02/02 09:52:12;;;;;;;2.40;2.30;;;8.70;63.50;;;;;;6122068;23;20447;-75
2023/02/02 09:54:48;;;;;;;2.33;2.23;;;8.70;62.10;;;;;;6121830;23;20452;-75
2023/02/02 09:57:25;;;;;;;2.10;2.00;;;8.80;62.60;;;;;;6095136;23;20407;-75
2023/02/02 09:59:53;;;;;;;2.67;2.58;;;8.90;62.30;;;;;;6096361;23;20376;-75
2023/02/02 10:02:24;;;;;;;2.20;2.10;;;9.00;60.40;;;;;;6119488;23;20399;-75
2023/02/02 10:04:57;;;;;;;2.80;2.60;;;9.20;60.60;;;;;;6121967;23;20447;-75
2023/02/02 10:07:35;;;;;;;2.42;2.22;;;9.30;60.90;;;;;;6120690;23;20403;-75
2023/02/02 10:10:24;;;;;;;2.08;1.98;;;9.50;60.00;;;;;;6122057;23;20383;-75
2023/02/02 10:13:05;;;;;;;2.10;2.00;;;9.60;58.70;;;;;;6119773;23;20844;-75
2023/02/02 10:15:40;;;;;;;2.08;1.98;;;9.80;59.10;;;;;;6119312;23;20374;-75
2023/02/02 10:18:35;;;;;;;2.13;1.98;;;9.80;57.80;;;;;;6096575;23;20443;-75
2023/02/02 10:21:09;;;;;;;1.67;1.58;;;9.80;55.80;;;;;;6120716;23;20374;-74
2023/02/02 10:23:43;;;;;;;2.00;1.90;;;10.00;56.30;;;;;;6119919;23;20685;-75
2023/02/02 10:26:47;;;;;;;2.30;2.10;;;10.20;56.70;;;;;;6119855;23;20705;-74
2023/02/02 10:29:24;;;;;;;2.72;2.53;;;10.40;56.30;;;;;;6055983;23;20687;-74
2023/02/02 10:32:13;;;;;;;2.30;2.20;;;10.60;56.40;;;;;;6117523;23;20389;-75
2023/02/02 10:34:41;;;;;;;2.05;1.95;;;10.80;54.20;;;;;;6121965;23;20883;-74
2023/02/02 10:37:30;;;;;;;1.70;1.60;;;10.90;54.40;;;;;;6117862;23;20381;-75
2023/02/02 10:40:21;;;;;;;1.60;1.50;;;11.00;53.50;;;;;;6118855;23;20415;-75
2023/02/02 10:45:58;;;;;;;1.65;1.55;;;11.40;51.70;;;;;;6119988;23;20749;-75
2023/02/02 10:48:33;;;;;;;1.42;1.33;;;11.60;50.10;;;;;;6119562;23;20462;-75
2023/02/02 10:51:17;;;;;;;1.50;1.40;;;11.50;47.40;;;;;;6121655;23;20367;-74
2023/02/02 10:53:52;;;;;;;1.27;1.27;;;11.60;49.70;;;;;;6118983;23;20472;-75
2023/02/02 10:56:28;;;;;;;1.30;1.30;;;11.80;49.00;;;;;;6096078;23;20376;-75
2023/02/02 10:59:20;;;;;;;1.27;1.20;;;12.00;49.50;;;;;;6095293;23;22495;-75
2023/02/02 11:01:47;;;;;;;1.20;1.20;;;12.20;48.90;;;;;;6094639;23;20459;-75
2023/02/02 11:07:01;;;;;;;1.67;1.58;;;12.20;47.70;;;;;;6120993;23;20637;-76
2023/02/02 11:09:35;;;;;;;1.58;1.48;;;12.30;46.20;;;;;;6120730;23;20387;-75
2023/02/02 11:12:29;;;;;;;1.50;1.40;;;12.50;47.30;;;;;;6118587;23;20383;-75
2023/02/02 11:15:04;;;;;;;1.10;1.00;;;12.50;47.40;;;;;;6117940;23;20383;-75
2023/02/02 11:17:32;;;;;;;1.50;1.40;;;12.60;45.70;;;;;;6121884;23;20419;-75
2023/02/02 11:19:59;;;;;;;1.40;1.30;;;12.70;46.00;;;;;;6118404;23;20463;-75
2023/02/02 11:22:35;;;;;;;1.43;1.33;;;13.00;45.70;;;;;;6121932;23;20414;-75
2023/02/02 11:25:06;;;;;;;1.15;1.15;;;13.00;44.70;;;;;;6095166;23;20379;-75
2023/02/02 11:27:41;;;;;;;1.23;1.13;;;13.30;43.50;;;;;;6117639;23;20767;-75
2023/02/02 11:30:37;;;;;;;1.00;1.00;;;13.30;43.70;;;;;;6119223;23;20372;-75
2023/02/02 11:33:25;;;;;;;0.93;0.93;;;13.30;43.00;;;;;;6093792;23;20915;-75
2023/02/02 11:35:55;;;;;;;1.20;1.15;;;13.60;43.90;;;;;;6120997;23;20380;-75
2023/02/02 11:38:23;;;;;;;1.25;1.15;;;13.80;41.60;;;;;;6121185;23;20384;-76
2023/02/02 11:41:05;;;;;;;1.30;1.15;;;13.90;42.30;;;;;;6120694;23;20384;-75
2023/02/02 11:43:40;;;;;;;1.20;1.10;;;14.00;43.00;;;;;;6096903;23;20380;-75
2023/02/02 11:46:19;;;;;;;1.00;1.00;;;14.20;42.30;;;;;;6095768;23;20375;-76
2023/02/02 11:48:58;;;;;;;1.27;1.27;;;14.20;42.90;;;;;;6116979;23;20396;-75
2023/02/02 11:51:26;;;;;;;1.52;1.42;;;14.00;42.20;;;;;;6123185;23;20380;-75
2023/02/02 11:54:06;;;;;;;1.52;1.42;;;14.00;43.50;;;;;;6121933;23;20466;-75
2023/02/02 11:56:38;;;;;;;1.30;1.20;;;14.20;42.30;;;;;;6123157;23;20836;-76
2023/02/02 11:59:05;;;;;;;1.40;1.30;;;14.20;42.10;;;;;;6122457;23;20455;-75
2023/02/02 12:01:34;;;;;;;1.83;1.73;;;14.20;43.20;;;;;;6097657;23;20424;-76
2023/02/02 12:04:23;;;;;;;1.50;1.30;;;14.30;43.10;;;;;;6120505;23;20391;-74
2023/02/02 12:06:50;;;;;;;1.10;1.10;;;14.50;43.60;;;;;;6117087;23;20375;-76
2023/02/02 12:09:22;;;;;;;1.60;1.50;;;14.70;43.10;;;;;;6118174;23;20848;-75
2023/02/02 12:11:58;;;;;;;1.48;1.38;;;14.80;42.20;;;;;;6118725;23;20716;-75
2023/02/02 12:14:42;;;;;;;1.30;1.20;;;14.60;41.80;;;;;;6122372;23;20671;-74
2023/02/02 12:17:40;;;;;;;1.25;1.15;;;14.90;42.50;;;;;;6096549;23;20371;-75
2023/02/02 12:20:22;;;;;;;0.95;0.95;;;15.10;41.30;;;;;;6095437;23;20450;-75
2023/02/02 12:23:06;;;;;;;1.40;0.90;;;15.40;40.80;;;;;;6119569;23;20458;-75
2023/02/02 12:26:01;;;;;;;0.60;0.60;;;15.70;38.10;;;;;;6121273;23;20745;-75
2023/02/02 12:29:12;;;;;;;0.60;0.60;;;15.50;37.40;;;;;;6096872;23;20380;-74
2023/02/02 12:32:08;;;;;;;0.80;0.80;;;15.50;36.30;;;;;;6067846;23;20400;-76
2023/02/02 12:34:50;;;;;;;0.83;0.83;;;15.50;37.80;;;;;;6095396;23;20387;-76
2023/02/02 12:37:47;;;;;;;0.80;0.80;;;15.40;38.40;;;;;;6114834;23;20410;-76
2023/02/02 12:40:52;;;;;;;0.60;0.60;;;15.60;37.60;;;;;;6111776;23;20395;-75
2023/02/02 12:43:22;;;;;;;1.75;0.90;;;15.50;37.50;;;;;;6107081;23;20750;-75
2023/02/02 12:45:59;;;;;;;1.30;0.97;;;15.30;38.00;;;;;;6118415;23;20427;-75
2023/02/02 12:48:42;;;;;;;0.80;0.80;;;15.30;38.50;;;;;;6120634;23;20396;-77
2023/02/02 12:51:15;;;;;;;0.80;0.80;;;15.50;39.60;;;;;;6120321;23;20403;-75
2023/02/02 12:54:03;;;;;;;0.70;0.70;;;15.50;37.10;;;;;;6122700;23;20447;-75
2023/02/02 12:56:59;;;;;;;0.52;0.52;;;15.40;37.50;;;;;;6120268;23;20455;-75
2023/02/02 12:59:32;;;;;;;1.60;0.95;;;15.40;37.00;;;;;;6096220;23;20375;-76
2023/02/02 13:02:27;;;;;;;0.82;0.82;;;15.50;38.10;;;;;;6091538;23;22134;-75
2023/02/02 13:05:16;;;;;;;0.77;0.77;;;15.40;38.60;;;;;;6094601;23;20437;-75
2023/02/02 13:07:48;;;;;;;1.15;0.90;;;15.60;37.80;;;;;;6119624;23;20438;-73
2023/02/02 13:10:35;;;;;;;0.60;0.60;;;15.60;38.10;;;;;;6122869;23;20438;-75
2023/02/02 13:13:12;;;;;;;0.70;0.70;;;15.50;37.20;;;;;;6119851;23;20415;-75
2023/02/02 13:15:43;;;;;;;0.60;0.60;;;15.50;37.00;;;;;;6122325;23;20377;-75
2023/02/02 13:18:23;;;;;;;0.85;0.80;;;15.70;37.40;;;;;;6096818;23;20372;-74
2023/02/02 13:20:59;;;;;;;0.90;0.90;;;15.70;37.80;;;;;;6095316;23;20379;-75
2023/02/02 13:23:42;;;;;;;0.80;0.80;;;15.70;37.90;;;;;;6119764;23;20752;-74
2023/02/02 13:26:18;;;;;;;0.77;0.77;;;15.60;37.30;;;;;;6119494;23;20376;-75
2023/02/02 13:29:11;;;;;;;0.80;0.80;;;15.70;38.60;;;;;;6095491;23;20470;-76
2023/02/02 13:31:43;;;;;;;1.90;1.80;;;16.00;38.00;;;;;;6122529;23;20713;-76
2023/02/02 13:34:45;;;;;;;1.20;1.10;;;16.20;37.70;;;;;;6121177;23;20372;-75
2023/02/02 13:37:41;;;;;;;1.00;0.85;;;16.40;37.90;;;;;;6043063;23;20373;-73
2023/02/02 13:40:32;;;;;;;0.63;0.60;;;16.70;35.80;;;;;;6095103;23;20447;-75
2023/02/02 13:43:16;;;;;;;1.05;0.70;;;16.80;37.20;;;;;;6094946;23;20712;-75
2023/02/02 13:46:17;;;;;;;0.80;0.70;;;16.90;35.80;;;;;;6095850;23;20376;-75
2023/02/02 13:49:24;;;;;;;0.70;0.70;;;16.60;35.30;;;;;;6121092;23;20475;-76
2023/02/02 13:51:57;;;;;;;0.70;0.70;;;16.90;36.70;;;;;;6106012;23;20454;-75
2023/02/02 13:54:30;;;;;;;0.50;0.50;;;16.90;36.50;;;;;;6120641;23;20387;-75
2023/02/02 13:56:57;;;;;;;0.70;0.70;;;16.80;36.20;;;;;;6095596;23;20388;-75
2023/02/02 14:00:00;;;;;;;0.60;0.60;;;17.00;36.60;;;;;;6121851;23;20375;-76
2023/02/02 14:02:42;;;;;;;0.70;0.70;;;17.00;35.90;;;;;;6095820;23;20371;-76
2023/02/02 14:05:20;;;;;;;0.60;0.60;;;17.00;36.20;;;;;;6120875;23;20374;-75
2023/02/02 14:07:50;;;;;;;0.60;0.60;;;16.70;35.70;;;;;;6119363;23;20705;-77
2023/02/02 14:10:26;;;;;;;0.90;0.68;;;16.50;36.00;;;;;;6121024;23;20775;-76
2023/02/02 14:12:54;;;;;;;0.77;0.77;;;16.60;37.70;;;;;;6120361;23;20406;-76
2023/02/02 14:15:43;;;;;;;1.30;1.20;;;16.50;35.90;;;;;;6118551;23;20442;-76
2023/02/02 14:18:10;;;;;;;0.70;0.70;;;16.40;35.90;;;;;;6120996;23;20375;-76
2023/02/02 14:20:47;;;;;;;0.70;0.70;;;16.40;35.70;;;;;;6121768;23;20856;-77
2023/02/02 14:23:49;;;;;;;0.63;0.63;;;16.40;36.10;;;;;;6118834;23;20761;-76
2023/02/02 14:26:20;;;;;;;0.63;0.63;;;16.40;36.10;;;;;;6120385;23;20403;-75